Time;durP1;ratioP1;P1;durP2;ratioP2;P2;SDS_P1;SDS_P2;PMS_P1;PMS_P2;Temp;Humidity;BMP_temperature;BMP_pressure;BME280_temperature;BME280_humidity;BME280_pressure;Samples;Min_cycle;Max_cycle;Signal;HPM_P1;HPM_P2
2022/10/19 00:00:28;;;;;;;;;;;;;;;13.25;77.28;100557.25;3056241;19;19946;-54
2022/10/19 00:01:35;;;;;;;;;;;;;;;13.22;77.51;100562.81;3056725;19;20079;-52
2022/10/19 00:02:37;;;;;;;;;;;;;;;13.26;77.37;100558.09;3057182;19;19923;-54
2022/10/19 00:03:42;;;;;;;;;;;;;;;13.26;77.42;100563.47;3057545;19;19926;-53
2022/10/19 00:04:43;;;;;;;;;;;;;;;13.24;77.98;100552.84;3057270;19;20255;-52
2022/10/19 00:05:48;;;;;;;;;;;;;;;13.23;78.15;100556.47;3056100;19;20246;-51
2022/10/19 00:06:49;;;;;;;;;;;;;;;13.17;78.70;100554.22;3056235;19;19918;-52
2022/10/19 00:07:54;;;;;;;;;;;;;;;13.08;79.60;100554.84;3057209;19;19933;-52
2022/10/19 00:08:57;;;;;;;;;;;;;;;13.01;80.07;100553.59;3057007;19;20214;-51
2022/10/19 00:10:01;;;;;;;;;;;;;;;12.96;80.68;100555.72;3057502;19;19915;-52
2022/10/19 00:11:03;;;;;;;;;;;;;;;12.87;81.40;100557.22;3057169;19;19938;-50
2022/10/19 00:12:07;;;;;;;;;;;;;;;12.80;82.06;100560.47;3056478;19;19938;-50
2022/10/19 00:13:09;;;;;;;;;;;;;;;12.74;82.46;100558.19;3057315;19;19919;-51
2022/10/19 00:14:15;;;;;;;;;;;;;;;12.66;82.90;100563.22;3057013;19;19926;-54
2022/10/19 00:15:17;;;;;;;;;;;;;;;12.60;83.32;100556.47;3057420;19;19926;-54
2022/10/19 00:16:21;;;;;;;;;;;;;;;12.54;83.65;100559.56;3056681;19;20312;-54
2022/10/19 00:17:23;;;;;;;;;;;;;;;12.46;84.06;100562.75;3057742;19;19919;-49
2022/10/19 00:18:28;;;;;;;;;;;;;;;12.39;84.04;100560.63;3057150;19;20443;-55
2022/10/19 00:19:32;;;;;;;;;;;;;;;12.36;84.47;100568.84;3057470;19;19954;-49
2022/10/19 00:20:35;;;;;;;;;;;;;;;12.33;84.44;100566.38;3057217;19;19926;-51
2022/10/19 00:21:39;;;;;;;;;;;;;;;12.28;84.86;100566.69;3057275;19;19935;-51
2022/10/19 00:22:41;;;;;;;;;;;;;;;12.26;85.00;100568.63;3056889;19;20341;-54
2022/10/19 00:23:45;;;;;;;;;;;;;;;12.18;85.33;100566.47;3057065;19;19918;-49
2022/10/19 00:24:47;;;;;;;;;;;;;;;12.15;85.55;100561.31;3057154;19;20356;-55
2022/10/19 00:25:58;;;;;;;;;;;;;;;12.10;85.59;100565.25;3056972;19;20386;-54
2022/10/19 00:27:00;;;;;;;;;;;;;;;12.05;85.73;100572.72;3057081;19;19926;-53
2022/10/19 00:28:04;;;;;;;;;;;;;;;12.00;85.95;100569.50;3056453;19;20342;-50
2022/10/19 00:29:06;;;;;;;;;;;;;;;11.95;85.87;100572.50;3056233;19;19919;-53
2022/10/19 00:30:11;;;;;;;;;;;;;;;11.93;85.84;100566.38;3057249;19;19940;-55
2022/10/19 00:31:14;;;;;;;;;;;;;;;11.87;86.00;100567.63;3056763;19;20330;-53
2022/10/19 00:32:19;;;;;;;;;;;;;;;11.84;85.77;100572.31;3056601;19;19918;-54
2022/10/19 00:33:21;;;;;;;;;;;;;;;11.80;85.73;100562.78;3057237;19;19923;-55
2022/10/19 00:34:26;;;;;;;;;;;;;;;11.75;86.01;100563.06;3058372;19;19918;-50
2022/10/19 00:35:27;;;;;;;;;;;;;;;11.74;85.96;100569.34;3057203;19;19918;-52
2022/10/19 00:36:34;;;;;;;;;;;;;;;11.68;85.79;100564.41;3056067;19;20021;-53
2022/10/19 00:37:35;;;;;;;;;;;;;;;11.71;85.85;100571.38;3056283;19;19930;-53
2022/10/19 00:38:40;;;;;;;;;;;;;;;11.64;86.04;100567.38;3055767;19;20364;-51
2022/10/19 00:39:42;;;;;;;;;;;;;;;11.56;86.31;100570.56;3056947;19;19939;-54
2022/10/19 00:40:47;;;;;;;;;;;;;;;11.55;86.43;100572.38;3056626;19;19927;-49
2022/10/19 00:41:51;;;;;;;;;;;;;;;11.50;86.43;100569.13;3056835;19;19915;-54
2022/10/19 00:42:54;;;;;;;;;;;;;;;11.55;86.05;100568.84;3057170;19;19915;-50
2022/10/19 00:43:58;;;;;;;;;;;;;;;11.53;86.34;100570.75;3056553;19;20049;-52
2022/10/19 00:45:01;;;;;;;;;;;;;;;11.43;86.92;100564.28;3057149;19;20368;-52
2022/10/19 00:46:06;;;;;;;;;;;;;;;11.41;86.75;100571.53;3056906;19;19978;-52
2022/10/19 00:47:08;;;;;;;;;;;;;;;11.37;86.65;100564.66;3057007;19;19949;-51
2022/10/19 00:48:14;;;;;;;;;;;;;;;11.33;86.27;100566.69;3056723;19;19923;-53
2022/10/19 00:49:19;;;;;;;;;;;;;;;11.33;86.14;100572.03;3057351;19;19948;-52
2022/10/19 00:50:25;;;;;;;;;;;;;;;11.31;86.16;100567.72;3056546;19;19922;-50
2022/10/19 00:51:27;;;;;;;;;;;;;;;11.29;85.88;100573.16;3056130;19;19919;-52
2022/10/19 00:52:31;;;;;;;;;;;;;;;11.27;86.02;100566.19;3055167;19;19921;-52
2022/10/19 00:53:34;;;;;;;;;;;;;;;11.29;85.86;100566.97;3056191;19;19922;-53
2022/10/19 00:54:39;;;;;;;;;;;;;;;11.26;85.58;100565.34;3056294;19;19927;-55
2022/10/19 00:55:41;;;;;;;;;;;;;;;11.28;85.35;100570.56;3056310;19;19950;-55
2022/10/19 00:56:46;;;;;;;;;;;;;;;11.28;85.20;100567.91;3055516;19;19919;-55
2022/10/19 00:57:50;;;;;;;;;;;;;;;11.29;84.58;100567.81;3056242;19;19922;-52
2022/10/19 00:59:15;;;;;;;;;;;;;;;11.34;84.04;100564.88;3055829;19;20267;-50
2022/10/19 01:00:17;;;;;;;;;;;;;;;11.32;83.71;100561.44;3055701;19;19919;-55
2022/10/19 01:01:22;;;;;;;;;;;;;;;11.38;82.91;100561.03;3056666;19;19946;-55
2022/10/19 01:02:23;;;;;;;;;;;;;;;11.41;82.77;100552.81;3056844;19;19922;-53
2022/10/19 01:03:28;;;;;;;;;;;;;;;11.42;82.45;100551.88;3056601;19;20706;-52
2022/10/19 01:04:30;;;;;;;;;;;;;;;11.45;82.14;100559.69;3056608;19;19929;-52
2022/10/19 01:05:34;;;;;;;;;;;;;;;11.48;81.64;100556.81;3055819;19;19938;-51
2022/10/19 01:06:36;;;;;;;;;;;;;;;11.51;81.22;100551.25;3055679;19;20357;-54
2022/10/19 01:07:41;;;;;;;;;;;;;;;11.53;81.04;100554.69;3055537;19;20378;-52
2022/10/19 01:08:42;;;;;;;;;;;;;;;11.54;80.71;100546.59;3055804;19;19919;-51
2022/10/19 01:09:47;;;;;;;;;;;;;;;11.54;80.61;100546.59;3056826;19;19992;-51
2022/10/19 01:11:01;;;;;;;;;;;;;;;11.56;80.18;100549.16;3056170;19;19942;-50
2022/10/19 01:12:24;;;;;;;;;;;;;;;11.57;79.96;100534.84;3056119;19;20368;-54
2022/10/19 01:13:35;;;;;;;;;;;;;;;11.61;79.31;100539.03;3056046;19;20730;-54
2022/10/19 01:14:37;;;;;;;;;;;;;;;11.61;79.29;100543.50;3056579;19;19918;-54
2022/10/19 01:15:48;;;;;;;;;;;;;;;11.61;78.91;100541.69;3056930;19;19923;-55
2022/10/19 01:16:59;;;;;;;;;;;;;;;11.59;78.93;100538.28;3055529;19;20338;-54
2022/10/19 01:18:08;;;;;;;;;;;;;;;11.57;78.63;100526.84;3056068;19;19938;-54
2022/10/19 01:19:16;;;;;;;;;;;;;;;11.63;78.39;100539.78;3055870;19;20334;-52
2022/10/19 01:20:39;;;;;;;;;;;;;;;11.64;78.14;100536.16;3055521;19;19938;-54
2022/10/19 01:21:45;;;;;;;;;;;;;;;11.62;78.07;100527.38;3056544;19;19919;-51
2022/10/19 01:22:54;;;;;;;;;;;;;;;11.64;77.61;100530.81;3055260;19;19947;-53
2022/10/19 01:24:17;;;;;;;;;;;;;;;11.65;77.42;100529.84;3055647;19;19915;-51
2022/10/19 01:25:23;;;;;;;;;;;;;;;11.70;76.62;100540.25;3055616;19;20546;-49
2022/10/19 01:26:37;;;;;;;;;;;;;;;11.73;76.26;100532.88;3054606;19;19919;-50
2022/10/19 01:27:43;;;;;;;;;;;;;;;11.74;76.51;100537.25;3055938;19;19927;-52
2022/10/19 01:28:53;;;;;;;;;;;;;;;11.77;76.49;100531.75;3055439;19;19914;-53
2022/10/19 01:29:57;;;;;;;;;;;;;;;11.78;76.48;100527.25;3055243;19;19988;-51
2022/10/19 01:31:01;;;;;;;;;;;;;;;11.77;76.75;100526.41;3055881;19;19926;-54
2022/10/19 01:32:03;;;;;;;;;;;;;;;11.78;76.68;100522.78;3056454;19;19927;-53
2022/10/19 01:33:15;;;;;;;;;;;;;;;11.79;76.59;100524.50;3055754;19;19919;-53
2022/10/19 01:34:31;;;;;;;;;;;;;;;11.83;76.39;100530.50;3055859;19;19923;-52
2022/10/19 01:35:53;;;;;;;;;;;;;;;11.82;76.39;100526.97;3055338;19;19942;-52
2022/10/19 01:36:54;;;;;;;;;;;;;;;11.80;76.27;100520.88;3055027;19;19923;-49
2022/10/19 01:38:21;;;;;;;;;;;;;;;11.77;76.89;100509.50;3055469;19;19923;-53
2022/10/19 01:39:22;;;;;;;;;;;;;;;11.78;77.11;100512.09;3056560;19;20302;-50
2022/10/19 01:40:42;;;;;;;;;;;;;;;11.76;77.61;100514.00;3056112;19;19946;-56
2022/10/19 01:41:52;;;;;;;;;;;;;;;11.73;78.12;100526.66;3055525;19;19930;-52
2022/10/19 01:42:59;;;;;;;;;;;;;;;11.70;78.59;100519.72;3055953;19;19927;-51
2022/10/19 01:44:11;;;;;;;;;;;;;;;11.67;78.91;100519.91;3055803;19;19943;-54
2022/10/19 01:45:14;;;;;;;;;;;;;;;11.69;78.84;100512.66;3055575;19;19942;-55
2022/10/19 01:46:23;;;;;;;;;;;;;;;11.70;78.83;100525.06;3055425;19;19950;-51
2022/10/19 01:47:25;;;;;;;;;;;;;;;11.71;78.88;100520.59;3055249;19;19942;-54
2022/10/19 01:48:30;;;;;;;;;;;;;;;11.71;78.57;100512.56;3055093;19;19918;-54
2022/10/19 01:49:35;;;;;;;;;;;;;;;11.71;78.49;100524.09;3055460;19;19992;-49
2022/10/19 01:50:42;;;;;;;;;;;;;;;11.68;78.64;100524.31;3055201;19;19919;-52
2022/10/19 01:51:47;;;;;;;;;;;;;;;11.71;78.52;100523.25;3056169;19;19915;-56
2022/10/19 01:52:49;;;;;;;;;;;;;;;11.70;78.42;100510.84;3054751;19;20322;-52
2022/10/19 01:53:55;;;;;;;;;;;;;;;11.73;78.42;100506.13;3054910;19;19919;-53
2022/10/19 01:54:57;;;;;;;;;;;;;;;11.75;77.98;100512.28;3055090;19;19930;-48
2022/10/19 01:56:02;;;;;;;;;;;;;;;11.75;78.14;100501.59;3054978;19;20621;-53
2022/10/19 01:57:05;;;;;;;;;;;;;;;11.76;78.03;100503.31;3055050;19;20371;-51
2022/10/19 01:58:10;;;;;;;;;;;;;;;11.75;77.91;100501.59;3054890;19;19914;-53
2022/10/19 01:59:11;;;;;;;;;;;;;;;11.75;78.22;100504.25;3055083;19;19923;-51
2022/10/19 02:00:16;;;;;;;;;;;;;;;11.73;78.33;100503.47;3056552;19;19922;-50
2022/10/19 02:01:18;;;;;;;;;;;;;;;11.74;78.50;100510.53;3054977;19;20219;-52
2022/10/19 02:02:25;;;;;;;;;;;;;;;11.70;78.72;100497.47;3054391;19;19998;-51
2022/10/19 02:03:27;;;;;;;;;;;;;;;11.71;78.65;100499.19;3055282;19;19927;-53
2022/10/19 02:04:31;;;;;;;;;;;;;;;11.69;78.74;100501.13;3055993;19;19975;-53
2022/10/19 02:05:33;;;;;;;;;;;;;;;11.68;79.17;100499.41;3055223;19;19922;-54
2022/10/19 02:06:38;;;;;;;;;;;;;;;11.64;79.37;100498.72;3055073;19;19934;-51
2022/10/19 02:07:40;;;;;;;;;;;;;;;11.58;79.33;100483.13;3054837;19;19919;-55
2022/10/19 02:08:49;;;;;;;;;;;;;;;11.56;79.53;100498.38;3054936;19;19942;-51
2022/10/19 02:09:50;;;;;;;;;;;;;;;11.58;79.03;100493.81;3055188;19;19951;-51
2022/10/19 02:10:55;;;;;;;;;;;;;;;11.63;78.92;100502.34;3055630;19;19923;-52
2022/10/19 02:11:58;;;;;;;;;;;;;;;11.62;79.00;100495.28;3055244;19;19923;-51
2022/10/19 02:13:02;;;;;;;;;;;;;;;11.66;78.75;100495.97;3054244;19;19952;-54
2022/10/19 02:14:05;;;;;;;;;;;;;;;11.64;78.74;100492.53;3054412;19;20018;-52
2022/10/19 02:15:14;;;;;;;;;;;;;;;11.63;78.78;100499.69;3054570;19;19927;-51
2022/10/19 02:16:21;;;;;;;;;;;;;;;11.63;78.76;100494.34;3055114;19;19919;-50
2022/10/19 02:17:29;;;;;;;;;;;;;;;11.61;78.88;100490.03;3054452;19;19950;-49
2022/10/19 02:18:35;;;;;;;;;;;;;;;11.59;78.84;100500.88;3055262;19;19919;-55
2022/10/19 02:19:39;;;;;;;;;;;;;;;11.59;79.06;100500.88;3054931;19;19939;-53
2022/10/19 02:20:41;;;;;;;;;;;;;;;11.61;78.65;100493.56;3055878;19;19914;-55
2022/10/19 02:21:45;;;;;;;;;;;;;;;11.61;78.58;100498.06;3055379;19;19983;-52
2022/10/19 02:22:47;;;;;;;;;;;;;;;11.62;78.70;100494.44;3055970;19;19975;-52
2022/10/19 02:23:51;;;;;;;;;;;;;;;11.59;78.59;100500.88;3055711;19;20024;-52
2022/10/19 02:24:55;;;;;;;;;;;;;;;11.62;78.38;100495.28;3055988;19;19936;-53
2022/10/19 02:25:59;;;;;;;;;;;;;;;11.63;78.30;100491.66;3054590;19;19914;-53
2022/10/19 02:27:03;;;;;;;;;;;;;;;11.65;78.26;100495.09;3054489;19;20052;-51
2022/10/19 02:28:08;;;;;;;;;;;;;;;11.62;78.19;100495.28;3054508;19;19918;-50
2022/10/19 02:29:10;;;;;;;;;;;;;;;11.63;77.96;100499.69;3054933;19;19918;-53
2022/10/19 02:30:15;;;;;;;;;;;;;;;11.66;77.83;100488.78;3053851;19;19922;-54
2022/10/19 02:31:16;;;;;;;;;;;;;;;11.67;77.68;100493.19;3055628;19;19922;-53
2022/10/19 02:32:21;;;;;;;;;;;;;;;11.67;77.76;100495.88;3054947;19;20359;-53
2022/10/19 02:33:23;;;;;;;;;;;;;;;11.65;77.97;100495.09;3054456;19;19914;-54
2022/10/19 02:34:27;;;;;;;;;;;;;;;11.64;77.85;100496.06;3053737;19;19932;-54
2022/10/19 02:35:29;;;;;;;;;;;;;;;11.62;78.18;100487.28;3054441;19;19942;-52
2022/10/19 02:36:33;;;;;;;;;;;;;;;11.58;78.41;100485.78;3054734;19;19930;-50
2022/10/19 02:37:35;;;;;;;;;;;;;;;11.57;78.35;100492.09;3055392;19;20257;-54
2022/10/19 02:38:39;;;;;;;;;;;;;;;11.54;78.54;100489.59;3054600;19;19915;-51
2022/10/19 02:39:42;;;;;;;;;;;;;;;11.57;78.65;100485.88;3055293;19;20021;-53
2022/10/19 02:40:47;;;;;;;;;;;;;;;11.56;78.55;100479.69;3055382;19;19915;-53
2022/10/19 02:41:51;;;;;;;;;;;;;;;11.51;79.17;100485.31;3054536;19;20338;-53
2022/10/19 02:43:00;;;;;;;;;;;;;;;11.49;79.19;100478.34;3054488;19;19919;-53
2022/10/19 02:44:07;;;;;;;;;;;;;;;11.46;79.70;100484.78;3055235;19;19946;-52
2022/10/19 02:45:20;;;;;;;;;;;;;;;11.42;79.83;100482.38;3054508;19;19919;-52
2022/10/19 02:46:21;;;;;;;;;;;;;;;11.37;80.06;100479.16;3054550;19;19922;-52
2022/10/19 02:47:37;;;;;;;;;;;;;;;11.33;80.67;100485.66;3054963;19;19918;-53
2022/10/19 02:48:39;;;;;;;;;;;;;;;11.27;81.34;100483.38;3054337;19;20429;-53
2022/10/19 02:49:43;;;;;;;;;;;;;;;11.24;81.86;100484.44;3054736;19;19922;-53
2022/10/19 02:50:46;;;;;;;;;;;;;;;11.21;82.09;100499.81;3055112;19;19926;-50
2022/10/19 02:52:04;;;;;;;;;;;;;;;11.19;81.97;100487.41;3055004;19;19952;-51
2022/10/19 02:53:06;;;;;;;;;;;;;;;11.15;82.10;100491.22;3055509;19;19922;-54
2022/10/19 02:54:10;;;;;;;;;;;;;;;11.10;82.30;100482.66;3054914;19;20617;-53
2022/10/19 02:55:12;;;;;;;;;;;;;;;11.05;82.52;100479.41;3055475;19;19915;-50
2022/10/19 02:56:17;;;;;;;;;;;;;;;11.03;82.40;100489.34;3054948;19;19929;-51
2022/10/19 02:57:22;;;;;;;;;;;;;;;11.02;82.64;100490.28;3055627;19;19929;-53
2022/10/19 02:58:26;;;;;;;;;;;;;;;10.97;82.56;100487.06;3055258;19;19934;-51
2022/10/19 02:59:28;;;;;;;;;;;;;;;10.94;82.55;100489.06;3055223;19;19922;-54
2022/10/19 03:00:33;;;;;;;;;;;;;;;10.96;82.27;100480.00;3054339;19;19923;-49
2022/10/19 03:01:35;;;;;;;;;;;;;;;10.97;82.01;100480.88;3054581;19;19948;-52
2022/10/19 03:02:39;;;;;;;;;;;;;;;10.94;81.94;100484.59;3055319;19;19927;-56
2022/10/19 03:03:41;;;;;;;;;;;;;;;10.88;81.98;100476.94;3055501;19;19919;-52
2022/10/19 03:04:45;;;;;;;;;;;;;;;10.91;81.92;100478.56;3055019;19;19939;-51
2022/10/19 03:05:48;;;;;;;;;;;;;;;10.88;81.84;100481.41;3054259;19;19950;-54
2022/10/19 03:06:52;;;;;;;;;;;;;;;10.87;82.08;100480.56;3054334;19;19946;-55
2022/10/19 03:07:54;;;;;;;;;;;;;;;10.86;81.86;100484.22;3055036;19;19927;-51
2022/10/19 03:08:58;;;;;;;;;;;;;;;10.85;81.77;100482.50;3055357;19;19974;-52
2022/10/19 03:10:00;;;;;;;;;;;;;;;10.82;81.73;100482.69;3055052;19;19934;-54
2022/10/19 03:11:05;;;;;;;;;;;;;;;10.82;81.60;100488.88;3054963;19;19919;-53
2022/10/19 03:12:07;;;;;;;;;;;;;;;10.81;81.62;100491.63;3055019;19;19922;-54
2022/10/19 03:13:11;;;;;;;;;;;;;;;10.82;81.30;100480.00;3054965;19;20482;-51
2022/10/19 03:14:13;;;;;;;;;;;;;;;10.82;81.16;100488.03;3056154;19;19923;-51
2022/10/19 03:15:18;;;;;;;;;;;;;;;10.81;81.25;100481.81;3057866;19;19926;-55
2022/10/19 03:16:19;;;;;;;;;;;;;;;10.83;81.32;100487.06;3058544;19;19919;-50
2022/10/19 03:17:24;;;;;;;;;;;;;;;10.80;80.86;100479.25;3058162;19;19931;-54
2022/10/19 03:18:25;;;;;;;;;;;;;;;10.79;81.03;100477.53;3058173;19;20251;-53
2022/10/19 03:19:30;;;;;;;;;;;;;;;10.79;80.69;100480.19;3058086;19;20315;-53
2022/10/19 03:20:32;;;;;;;;;;;;;;;10.79;80.50;100477.53;3058105;19;20329;-50
2022/10/19 03:21:36;;;;;;;;;;;;;;;10.80;80.49;100479.25;3058269;19;19942;-53
2022/10/19 03:22:38;;;;;;;;;;;;;;;10.78;80.49;100476.66;3058219;19;19930;-52
2022/10/19 03:23:43;;;;;;;;;;;;;;;10.79;80.28;100477.53;3058114;19;19926;-50
2022/10/19 03:24:44;;;;;;;;;;;;;;;10.81;80.05;100475.63;3056986;19;19933;-54
2022/10/19 03:25:49;;;;;;;;;;;;;;;10.81;79.78;100478.28;3057163;19;19987;-53
2022/10/19 03:26:51;;;;;;;;;;;;;;;10.79;79.71;100477.53;3058143;19;19923;-49
2022/10/19 03:27:55;;;;;;;;;;;;;;;10.82;79.50;100477.34;3057990;19;19923;-52
2022/10/19 03:28:57;;;;;;;;;;;;;;;10.86;79.32;100475.34;3058471;19;19918;-53
2022/10/19 03:30:01;;;;;;;;;;;;;;;10.85;78.76;100477.16;3058050;19;19919;-52
2022/10/19 03:31:03;;;;;;;;;;;;;;;10.83;78.69;100473.72;3058025;19;20330;-54
2022/10/19 03:32:08;;;;;;;;;;;;;;;10.86;77.71;100476.22;3058129;19;20369;-54
2022/10/19 03:33:09;;;;;;;;;;;;;;;10.84;77.36;100475.44;3058102;19;19922;-53
2022/10/19 03:34:14;;;;;;;;;;;;;;;10.88;76.68;100474.28;3058225;19;19915;-53
2022/10/19 03:35:16;;;;;;;;;;;;;;;10.92;76.44;100461.59;3057190;19;20374;-52
2022/10/19 03:36:27;;;;;;;;;;;;;;;10.93;76.24;100458.84;3057404;19;19926;-54
2022/10/19 03:37:29;;;;;;;;;;;;;;;10.97;76.08;100473.72;3058279;19;19915;-52
2022/10/19 03:38:33;;;;;;;;;;;;;;;11.01;76.05;100467.19;3057619;19;20534;-53
2022/10/19 03:39:35;;;;;;;;;;;;;;;10.99;76.05;100469.09;3057894;19;19923;-52
2022/10/19 03:40:39;;;;;;;;;;;;;;;11.02;76.28;100463.59;3057721;19;19918;-51
2022/10/19 03:41:41;;;;;;;;;;;;;;;11.04;76.35;100467.00;3058092;19;19922;-52
2022/10/19 03:42:45;;;;;;;;;;;;;;;11.04;76.44;100469.69;3057591;19;19922;-53
2022/10/19 03:43:47;;;;;;;;;;;;;;;11.10;76.35;100455.09;3058272;19;19930;-50
2022/10/19 03:44:52;;;;;;;;;;;;;;;11.09;76.28;100459.59;3057828;19;20089;-51
2022/10/19 03:45:54;;;;;;;;;;;;;;;11.10;76.46;100463.97;3058231;19;19933;-54
2022/10/19 03:46:59;;;;;;;;;;;;;;;11.12;77.08;100456.69;3057876;19;20020;-50
2022/10/19 03:48:00;;;;;;;;;;;;;;;11.08;77.10;100452.53;3057952;19;19934;-53
2022/10/19 03:49:05;;;;;;;;;;;;;;;11.15;76.99;100458.31;3057642;19;20306;-55
2022/10/19 03:50:10;;;;;;;;;;;;;;;11.15;76.81;100459.16;3057368;19;20348;-51
2022/10/19 03:51:16;;;;;;;;;;;;;;;11.17;76.72;100451.06;3058908;19;19919;-54
2022/10/19 03:52:17;;;;;;;;;;;;;;;11.18;76.52;100453.63;3058187;19;19918;-50
2022/10/19 03:53:22;;;;;;;;;;;;;;;11.17;76.07;100457.25;3059379;19;19939;-53
2022/10/19 03:54:24;;;;;;;;;;;;;;;11.23;75.90;100453.31;3057743;19;19922;-50
2022/10/19 03:55:31;;;;;;;;;;;;;;;11.25;76.07;100455.91;3056934;19;19915;-52
2022/10/19 03:56:34;;;;;;;;;;;;;;;11.23;76.36;100444.47;3058092;19;19923;-53
2022/10/19 03:57:38;;;;;;;;;;;;;;;11.26;76.33;100449.59;3057645;19;19926;-56
2022/10/19 03:58:40;;;;;;;;;;;;;;;11.28;76.39;100453.03;3057834;19;20341;-54
2022/10/19 03:59:45;;;;;;;;;;;;;;;11.23;76.28;100471.19;3057254;19;19915;-51
2022/10/19 04:00:47;;;;;;;;;;;;;;;11.26;76.68;100457.63;3057791;19;20054;-53
2022/10/19 04:01:51;;;;;;;;;;;;;;;11.28;76.58;100453.03;3057727;19;19927;-56
2022/10/19 04:02:53;;;;;;;;;;;;;;;11.29;76.90;100454.75;3058010;19;19918;-52
2022/10/19 04:03:58;;;;;;;;;;;;;;;11.31;76.51;100459.03;3056917;19;19949;-52
2022/10/19 04:05:02;;;;;;;;;;;;;;;11.31;76.74;100452.84;3057010;19;20266;-54
2022/10/19 04:06:05;;;;;;;;;;;;;;;11.32;76.86;100454.56;3057193;19;19926;-51
2022/10/19 04:07:09;;;;;;;;;;;;;;;11.32;77.07;100454.56;3057636;19;20504;-51
2022/10/19 04:08:11;;;;;;;;;;;;;;;11.33;77.39;100456.28;3056902;19;19982;-51
2022/10/19 04:09:18;;;;;;;;;;;;;;;11.34;77.17;100452.66;3058279;19;19927;-50
2022/10/19 04:10:20;;;;;;;;;;;;;;;11.32;77.58;100443.88;3057682;19;19931;-53
2022/10/19 04:11:25;;;;;;;;;;;;;;;11.34;77.51;100453.50;3058200;19;19929;-52
2022/10/19 04:12:27;;;;;;;;;;;;;;;11.33;77.43;100445.59;3057156;19;19929;-52
2022/10/19 04:13:32;;;;;;;;;;;;;;;11.36;77.54;100456.06;3057512;19;19930;-51
2022/10/19 04:14:34;;;;;;;;;;;;;;;11.33;77.67;100445.59;3057401;19;19944;-53
2022/10/19 04:15:58;;;;;;;;;;;;;;;11.38;77.65;100459.50;3057214;19;20257;-53
2022/10/19 04:17:00;;;;;;;;;;;;;;;11.36;77.85;100453.38;3057409;19;19934;-51
2022/10/19 04:18:05;;;;;;;;;;;;;;;11.41;77.95;100453.94;3057079;19;20270;-50
2022/10/19 04:19:07;;;;;;;;;;;;;;;11.39;77.81;100445.19;3057533;19;20414;-51
2022/10/19 04:20:11;;;;;;;;;;;;;;;11.40;77.84;100458.44;3057278;19;20034;-55
2022/10/19 04:23:30;;;;;;;;;;;;;;;11.36;78.88;100451.56;3057202;19;19935;-53
2022/10/19 04:24:32;;;;;;;;;;;;;;;11.34;79.10;100449.97;3056898;19;20341;-53
2022/10/19 04:25:37;;;;;;;;;;;;;;;11.36;79.09;100446.22;3057005;19;19929;-54
2022/10/19 04:26:40;;;;;;;;;;;;;;;11.37;79.28;100447.94;3056321;19;19930;-55
2022/10/19 04:27:44;;;;;;;;;;;;;;;11.36;79.06;100454.25;3056675;19;20698;-53
2022/10/19 04:28:46;;;;;;;;;;;;;;;11.40;79.03;100452.22;3054879;19;19939;-49
2022/10/19 04:29:51;;;;;;;;;;;;;;;11.42;78.92;100450.31;3056670;19;19957;-53
2022/10/19 04:30:53;;;;;;;;;;;;;;;11.39;79.23;100445.19;3056964;19;19929;-50
2022/10/19 04:31:57;;;;;;;;;;;;;;;11.39;79.41;100448.72;3057021;19;19958;-51
2022/10/19 04:32:59;;;;;;;;;;;;;;;11.45;79.42;100450.13;3057331;19;19923;-53
2022/10/19 04:34:03;;;;;;;;;;;;;;;11.42;79.69;100443.16;3057214;19;19919;-51
2022/10/19 04:35:05;;;;;;;;;;;;;;;11.37;79.88;100436.41;3056815;19;19927;-51
2022/10/19 04:36:10;;;;;;;;;;;;;;;11.33;80.15;100440.25;3056088;19;20096;-52
2022/10/19 04:37:12;;;;;;;;;;;;;;;11.37;79.80;100439.06;3057090;19;19946;-51
2022/10/19 04:38:17;;;;;;;;;;;;;;;11.37;79.97;100431.06;3056875;19;19919;-53
2022/10/19 04:39:18;;;;;;;;;;;;;;;11.40;79.82;100446.88;3057069;19;19937;-52
2022/10/19 04:40:23;;;;;;;;;;;;;;;11.38;80.20;100448.81;3056232;19;19918;-51
2022/10/19 04:41:25;;;;;;;;;;;;;;;11.37;79.97;100436.41;3056082;19;20341;-53
2022/10/19 04:42:29;;;;;;;;;;;;;;;11.40;80.14;100441.53;3057176;19;19922;-53
2022/10/19 04:43:31;;;;;;;;;;;;;;;11.38;80.15;100443.47;3056936;19;20545;-52
2022/10/19 04:44:35;;;;;;;;;;;;;;;11.37;80.33;100437.25;3057243;19;20462;-53
2022/10/19 04:45:37;;;;;;;;;;;;;;;11.35;80.21;100438.34;3056866;19;19953;-51
2022/10/19 04:46:41;;;;;;;;;;;;;;;11.31;80.53;100436.81;3056070;19;19922;-51
2022/10/19 04:47:43;;;;;;;;;;;;;;;11.35;80.41;100427.66;3056109;19;19934;-52
2022/10/19 04:48:48;;;;;;;;;;;;;;;11.35;80.29;100430.31;3057095;19;19938;-52
2022/10/19 04:49:50;;;;;;;;;;;;;;;11.38;80.39;100430.09;3056832;19;19960;-52
2022/10/19 04:50:56;;;;;;;;;;;;;;;11.39;80.36;100430.00;3056895;19;19940;-55
2022/10/19 04:52:00;;;;;;;;;;;;;;;11.35;80.51;100422.31;3056795;19;19927;-55
2022/10/19 04:53:02;;;;;;;;;;;;;;;11.33;80.85;100425.06;3057111;19;19921;-50
2022/10/19 04:54:06;;;;;;;;;;;;;;;11.26;80.92;100417.53;3056757;19;20038;-50
2022/10/19 04:55:08;;;;;;;;;;;;;;;11.29;81.04;100423.56;3057018;19;19918;-55
2022/10/19 04:56:14;;;;;;;;;;;;;;;11.23;81.11;100429.28;3056122;19;19994;-51
2022/10/19 04:57:15;;;;;;;;;;;;;;;11.29;81.22;100422.69;3056827;19;19934;-53
2022/10/19 04:58:20;;;;;;;;;;;;;;;11.30;80.90;100432.44;3056515;19;19927;-52
2022/10/19 04:59:22;;;;;;;;;;;;;;;11.32;81.08;100422.50;3057080;19;19931;-54
2022/10/19 05:00:26;;;;;;;;;;;;;;;11.32;81.10;100427.84;3056331;19;19926;-52
2022/10/19 05:01:28;;;;;;;;;;;;;;;11.27;81.68;100429.94;3058330;19;19938;-53
2022/10/19 05:02:33;;;;;;;;;;;;;;;11.30;81.06;100430.63;3056293;19;19922;-51
2022/10/19 05:03:35;;;;;;;;;;;;;;;11.35;81.14;100427.66;3056926;19;19931;-52
2022/10/19 05:04:39;;;;;;;;;;;;;;;11.32;81.08;100433.19;3056522;19;19931;-53
2022/10/19 05:05:46;;;;;;;;;;;;;;;11.33;81.10;100429.56;3057025;19;19923;-50
2022/10/19 05:06:50;;;;;;;;;;;;;;;11.32;81.43;100435.84;3055960;19;19923;-53
2022/10/19 05:07:52;;;;;;;;;;;;;;;11.29;81.45;100418.22;3057045;19;19919;-53
2022/10/19 05:08:57;;;;;;;;;;;;;;;11.26;81.61;100429.09;3056183;19;20234;-51
2022/10/19 05:09:59;;;;;;;;;;;;;;;11.26;81.91;100430.91;3056601;19;19930;-51
2022/10/19 05:11:04;;;;;;;;;;;;;;;11.32;81.56;100427.84;3055429;19;19922;-51
2022/10/19 05:12:08;;;;;;;;;;;;;;;11.30;81.54;100427.94;3056953;19;19922;-54
2022/10/19 05:13:10;;;;;;;;;;;;;;;11.32;81.56;100425.19;3056273;19;20267;-51
2022/10/19 05:14:14;;;;;;;;;;;;;;;11.29;81.48;100439.59;3056928;19;20254;-52
2022/10/19 05:15:16;;;;;;;;;;;;;;;11.28;81.96;100429.00;3055797;19;19922;-51
2022/10/19 05:16:22;;;;;;;;;;;;;;;11.30;81.68;100429.75;3057115;19;19923;-52
2022/10/19 05:17:24;;;;;;;;;;;;;;;11.22;82.38;100422.25;3056429;19;19939;-53
2022/10/19 05:18:28;;;;;;;;;;;;;;;11.23;82.58;100434.63;3056232;19;19926;-51
2022/10/19 05:19:30;;;;;;;;;;;;;;;11.18;82.78;100437.59;3056884;19;19940;-55
2022/10/19 05:20:34;;;;;;;;;;;;;;;11.16;83.22;100438.66;3056295;19;19922;-50
2022/10/19 05:21:39;;;;;;;;;;;;;;;11.15;82.99;100443.16;3056202;19;19926;-54
2022/10/19 05:22:41;;;;;;;;;;;;;;;11.12;83.42;100432.66;3056690;19;20022;-52
2022/10/19 05:23:45;;;;;;;;;;;;;;;11.09;83.51;100438.22;3056621;19;20023;-51
2022/10/19 05:24:47;;;;;;;;;;;;;;;11.09;83.66;100438.22;3056428;19;19923;-54
2022/10/19 05:25:51;;;;;;;;;;;;;;;11.08;83.64;100436.50;3057413;19;19918;-51
2022/10/19 05:26:56;;;;;;;;;;;;;;;11.02;83.96;100434.19;3057469;19;19934;-51
2022/10/19 05:27:57;;;;;;;;;;;;;;;11.04;83.47;100439.44;3056320;19;19938;-51
2022/10/19 05:29:03;;;;;;;;;;;;;;;11.08;83.21;100438.31;3057463;19;19922;-51
2022/10/19 05:30:07;;;;;;;;;;;;;;;11.06;83.25;100433.06;3057727;19;20556;-52
2022/10/19 05:31:12;;;;;;;;;;;;;;;11.06;82.97;100433.06;3057273;19;19927;-50
2022/10/19 05:32:14;;;;;;;;;;;;;;;11.07;82.88;100434.78;3056769;19;19966;-51
2022/10/19 05:33:18;;;;;;;;;;;;;;;11.06;83.13;100435.72;3057863;19;19918;-52